Time;durP1;ratioP1;P1;durP2;ratioP2;P2;SDS_P1;SDS_P2;PMS_P1;PMS_P2;Temp;Humidity;BMP_temperature;BMP_pressure;BME280_temperature;BME280_humidity;BME280_pressure;Samples;Min_cycle;Max_cycle;Signal;HPM_P1;HPM_P2
2021/08/07 07:07:33;;;;;;;23.17;7.57;;;;;;;21.96;59.06;100081.19;2068809;27;1284435;-80
2021/08/07 07:08:39;;;;;;;15.32;5.90;;;;;;;21.08;61.13;100091.72;2089017;28;20541;-78
2021/08/07 07:09:40;;;;;;;12.52;6.40;;;;;;;20.72;62.29;100089.88;2067213;28;20418;-79
2021/08/07 07:10:40;;;;;;;13.00;5.63;;;;;;;20.59;62.66;100085.75;2078742;28;20065;-78
2021/08/07 07:11:44;;;;;;;15.47;5.57;;;;;;;20.55;62.80;100084.41;2089422;28;20117;-79
2021/08/07 07:13:46;;;;;;;;;;;;;;;;;;;;;
2021/08/07 07:14:46;;;;;;;8.95;4.13;;;;;;;20.42;63.28;100092.69;2096967;28;20063;-76
2021/08/07 07:16:02;;;;;;;;;;;;;;;;;;;;;
2021/08/07 07:17:05;;;;;;;7.93;3.45;;;;;;;20.29;63.40;100095.69;2078684;28;20048;-84
2021/08/07 07:18:05;;;;;;;6.88;3.33;;;;;;;20.35;63.48;100093.44;2098264;28;20029;-78
2021/08/07 07:19:05;;;;;;;7.87;2.67;;;;;;;20.39;62.76;100092.16;2080800;28;20022;-72
2021/08/07 07:20:06;;;;;;;12.60;3.30;;;;;;;20.29;62.87;100089.56;2088410;28;20053;-73
2021/08/07 07:21:08;;;;;;;5.63;2.90;;;;;;;20.30;63.25;100092.09;2097100;28;20024;-71
2021/08/07 07:22:08;;;;;;;7.18;2.63;;;;;;;20.32;62.84;100091.91;2096891;28;20037;-74
2021/08/07 07:23:09;;;;;;;6.90;2.97;;;;;;;20.33;63.11;100085.66;2096941;28;20446;-71
2021/08/07 07:24:09;;;;;;;7.18;3.10;;;;;;;20.32;62.90;100090.09;2087349;28;20476;-72
2021/08/07 07:25:11;;;;;;;3.10;1.90;;;;;;;20.36;63.08;100090.66;2072230;28;20042;-72
2021/08/07 07:26:11;;;;;;;4.70;2.20;;;;;;;20.39;62.92;100094.81;2080204;28;20044;-72
2021/08/07 07:27:11;;;;;;;5.07;2.00;;;;;;;20.36;62.79;100089.81;2096811;28;20017;-71
2021/08/07 07:28:11;;;;;;;5.40;2.23;;;;;;;20.36;62.86;100097.75;2096926;28;20032;-72
2021/08/07 07:29:12;;;;;;;4.60;1.73;;;;;;;20.31;62.90;100090.25;2063009;28;20079;-73
2021/08/07 07:30:12;;;;;;;5.40;1.90;;;;;;;20.27;63.38;100088.88;1975022;28;112703;-72
2021/08/07 07:32:19;;;;;;;5.45;2.13;;;;;;;20.25;63.34;100094.31;2066998;27;20641;-71
2021/08/07 07:33:19;;;;;;;6.17;2.00;;;;;;;20.30;63.77;100096.53;2066219;28;20048;-70
2021/08/07 07:34:19;;;;;;;5.50;1.87;;;;;;;20.24;63.56;100097.94;2080035;28;20022;-71
2021/08/07 07:35:19;;;;;;;3.83;1.77;;;;;;;20.22;63.73;100094.59;2072039;28;20284;-72
2021/08/07 07:36:20;;;;;;;9.10;1.80;;;;;;;20.21;63.59;100092.94;2080022;28;20018;-71
2021/08/07 07:37:20;;;;;;;4.63;2.53;;;;;;;20.21;63.88;100098.25;2088464;28;20025;-72
2021/08/07 07:38:20;;;;;;;2.80;1.43;;;;;;;20.22;63.84;100093.78;2087855;28;20025;-73
2021/08/07 07:39:20;;;;;;;3.37;1.57;;;;;;;20.18;63.83;100098.53;2088913;28;20021;-72
2021/08/07 07:40:21;;;;;;;3.27;2.00;;;;;;;20.20;63.83;100096.56;2079737;28;20429;-73
2021/08/07 07:41:21;;;;;;;5.20;1.63;;;;;;;20.17;63.71;100094.22;2079226;28;20104;-72
2021/08/07 07:42:21;;;;;;;3.03;1.50;;;;;;;20.14;63.95;100086.56;2087924;28;20021;-73
2021/08/07 07:43:21;;;;;;;3.93;1.47;;;;;;;20.14;64.00;100081.25;2088806;28;20095;-73
2021/08/07 07:44:21;;;;;;;5.40;1.80;;;;;;;20.13;63.86;100079.59;2080125;28;20453;-73
2021/08/07 07:45:22;;;;;;;2.97;1.60;;;;;;;20.16;63.71;100081.97;2071603;28;20428;-72
2021/08/07 07:46:22;;;;;;;3.93;1.83;;;;;;;20.15;63.83;100075.81;2088215;28;20487;-72
2021/08/07 07:47:22;;;;;;;3.67;1.30;;;;;;;20.14;63.73;100087.41;2088670;28;20128;-72
2021/08/07 07:48:22;;;;;;;5.47;1.90;;;;;;;20.16;63.97;100079.31;2080108;28;20461;-72
2021/08/07 07:49:23;;;;;;;3.67;2.10;;;;;;;20.14;63.96;100076.81;2079850;28;20113;-73
2021/08/07 07:50:23;;;;;;;4.60;1.73;;;;;;;20.14;63.56;100081.25;2088619;28;20018;-73
2021/08/07 07:51:23;;;;;;;2.30;1.60;;;;;;;20.10;63.73;100074.59;2087993;28;20108;-73
2021/08/07 07:52:23;;;;;;;2.97;1.53;;;;;;;20.06;63.87;100080.19;2080139;28;20128;-72
2021/08/07 07:53:23;;;;;;;3.43;1.90;;;;;;;20.06;63.84;100080.19;2079502;28;20034;-74
2021/08/07 07:54:24;;;;;;;3.23;1.40;;;;;;;20.06;63.66;100074.88;2048109;28;20046;-73
2021/08/07 07:55:24;;;;;;;4.07;1.60;;;;;;;20.12;63.72;100083.25;2019339;28;119807;-74
2021/08/07 07:56:24;;;;;;;4.10;1.93;;;;;;;20.13;63.73;100079.59;2051271;28;20045;-75
2021/08/07 07:57:24;;;;;;;8.17;2.03;;;;;;;20.13;63.68;100082.25;2093418;28;20642;-76
2021/08/07 07:58:25;;;;;;;2.87;1.90;;;;;;;20.18;63.79;100077.34;2080071;28;20170;-75
2021/08/07 07:59:25;;;;;;;2.83;1.60;;;;;;;20.18;63.25;100083.47;2071385;28;20053;-73
2021/08/07 08:00:25;;;;;;;4.20;1.60;;;;;;;20.19;63.74;100079.03;2055694;28;20286;-74
2021/08/07 08:01:25;;;;;;;4.70;1.90;;;;;;;20.20;63.72;100078.03;2071355;28;20474;-75
2021/08/07 08:02:26;;;;;;;4.03;1.73;;;;;;;20.22;63.61;100084.00;2079986;28;20649;-75
2021/08/07 08:03:26;;;;;;;4.87;1.87;;;;;;;20.22;63.69;100081.34;2053644;28;20045;-74
2021/08/07 08:04:26;;;;;;;5.07;1.77;;;;;;;20.44;63.48;100087.25;2088270;28;20087;-76
2021/08/07 08:05:27;;;;;;;8.03;1.90;;;;;;;20.59;66.47;100085.75;2079588;28;20125;-75
2021/08/07 08:06:27;;;;;;;6.85;1.67;;;;;;;20.63;62.53;100080.16;2080486;28;20384;-75
2021/08/07 08:07:27;;;;;;;8.87;2.07;;;;;;;20.59;62.65;100084.91;2079762;28;20026;-73
2021/08/07 08:08:27;;;;;;;6.43;1.70;;;;;;;20.56;62.53;100086.06;2073840;28;20084;-74
2021/08/07 08:09:28;;;;;;;5.93;1.57;;;;;;;20.54;62.59;100082.75;2088218;28;20507;-71
2021/08/07 08:11:57;;;;;;;14.10;3.38;;;;;;;20.74;62.03;100085.25;1997569;27;20399;-72
2021/08/07 08:12:58;;;;;;;2.90;1.77;;;;;;;20.55;62.41;100081.75;2067873;28;20045;-72
2021/08/07 08:14:00;;;;;;;5.60;1.53;;;;;;;20.45;63.02;100083.63;1975695;28;20048;-72
2021/08/07 08:15:01;;;;;;;5.80;1.88;;;;;;;20.39;63.13;100078.94;2054069;28;20042;-72
2021/08/07 08:16:01;;;;;;;;;;;;;;;20.37;63.05;100076.41;2072348;28;20466;-71
2021/08/07 08:17:01;;;;;;;2.30;1.30;;;;;;;20.33;63.09;100081.16;2062127;28;19960;-73
2021/08/07 08:18:02;;;;;;;4.57;1.57;;;;;;;20.35;63.05;100077.56;2040779;28;20050;-72
2021/08/07 08:19:02;;;;;;;3.73;1.70;;;;;;;20.33;63.01;100080.34;2072478;28;20057;-71
2021/08/07 08:20:04;;;;;;;5.43;1.60;;;;;;;20.58;63.18;100075.31;2080021;28;20034;-73
2021/08/07 08:21:04;;;;;;;4.55;1.90;;;;;;;20.73;62.30;100075.63;2088223;28;20029;-79
2021/08/07 08:22:05;;;;;;;10.70;1.58;;;;;;;21.29;69.16;100072.00;2094052;28;20464;-73
2021/08/07 08:23:06;;;;;;;4.00;2.05;;;;;;;21.01;60.98;100072.91;2052068;28;20066;-77
2021/08/07 08:24:06;;;;;;;5.15;1.95;;;;;;;20.67;62.02;100066.44;2080678;28;20450;-77
2021/08/07 08:25:10;;;;;;;6.60;1.90;;;;;;;20.73;63.52;100070.31;2072790;28;20069;-78
2021/08/07 08:26:10;;;;;;;7.05;1.95;;;;;;;20.66;62.19;100063.97;2072507;28;20091;-77
2021/08/07 08:27:11;;;;;;;2.70;1.80;;;;;;;20.79;63.90;100067.06;2080870;28;20099;-77
2021/08/07 08:28:11;;;;;;;5.63;1.88;;;;;;;21.14;62.29;100063.75;2072705;28;20042;-80
2021/08/07 08:29:20;;;;;;;6.40;2.13;;;;;;;20.82;61.86;100072.06;2077698;28;20033;-82
2021/08/07 08:30:49;;;;;;;4.90;1.70;;;;;;;20.64;62.62;100061.47;2065999;28;20022;-85
2021/08/07 08:31:49;;;;;;;4.18;1.80;;;;;;;20.61;62.67;100066.22;2074153;28;20037;-77
2021/08/07 08:32:49;;;;;;;6.23;2.83;;;;;;;20.86;64.70;100062.00;2082324;28;20110;-77
2021/08/07 08:33:50;;;;;;;4.67;2.00;;;;;;;;;;2074565;28;20037;-78
2021/08/07 08:34:50;;;;;;;22.30;2.53;;;;;;;20.77;64.34;100066.38;2082680;28;20426;-80
2021/08/07 08:35:50;;;;;;;11.60;2.03;;;;;;;20.95;63.19;100058.47;2083043;28;20026;-80
2021/08/07 08:36:50;;;;;;;6.63;2.00;;;;;;;20.84;62.15;100066.63;2058158;28;20117;-78
2021/08/07 08:37:52;;;;;;;4.60;1.60;;;;;;;20.94;62.27;100061.28;2065479;28;20022;-77
2021/08/07 08:38:53;;;;;;;5.22;1.85;;;;;;;21.05;61.76;100053.09;2056728;28;20035;-80
2021/08/07 08:39:59;;;;;;;6.28;2.00;;;;;;;20.90;62.18;100055.44;2056581;28;20041;-79
2021/08/07 08:41:02;;;;;;;8.80;1.90;;;;;;;20.81;62.30;100056.31;2072806;28;20056;-85
2021/08/07 08:42:04;;;;;;;3.95;1.65;;;;;;;20.78;62.44;100060.09;2064666;28;20728;-83
2021/08/07 08:43:05;;;;;;;3.88;2.15;;;;;;;20.71;62.71;100056.41;2063559;28;20030;-77
2021/08/07 08:44:05;;;;;;;5.13;1.77;;;;;;;20.72;62.45;100058.06;2056669;28;20415;-82
2021/08/07 08:45:11;;;;;;;7.30;2.00;;;;;;;20.77;62.03;100054.97;2088186;28;20033;-82
2021/08/07 09:07:51;;;;;;;12.55;4.07;;;;;;;23.02;56.02;100033.78;2072461;27;20461;-74
2021/08/07 09:09:17;;;;;;;12.20;4.50;;;;;;;22.60;57.46;100035.59;2046102;28;20460;-78
2021/08/07 09:10:22;;;;;;;14.00;3.67;;;;;;;22.30;57.88;100040.47;2079892;28;20044;-76
2021/08/07 09:11:22;;;;;;;9.68;3.25;;;;;;;22.04;57.85;100036.09;2080467;28;20400;-76
2021/08/07 09:12:43;;;;;;;10.87;3.23;;;;;;;21.83;59.33;100034.66;2046435;28;20038;-73
2021/08/07 09:13:43;;;;;;;7.60;3.50;;;;;;;21.69;59.36;100035.25;2082557;28;20025;-76
2021/08/07 09:14:45;;;;;;;6.90;2.43;;;;;;;21.57;59.21;100032.88;2082177;28;20026;-75
2021/08/07 09:15:46;;;;;;;6.93;2.47;;;;;;;21.50;59.43;100039.78;2065262;28;20038;-75
2021/08/07 09:17:01;;;;;;;9.50;2.53;;;;;;;21.45;60.30;100037.59;2058001;28;20035;-74
2021/08/07 09:18:10;;;;;;;6.85;2.40;;;;;;;21.35;60.11;100043.00;2019196;28;86278;-77
2021/08/07 09:19:10;;;;;;;4.82;2.20;;;;;;;21.31;59.68;100041.66;2093974;28;20045;-74
2021/08/07 09:25:08;;;;;;;8.13;1.98;;;;;;;21.63;59.42;100076.53;2097453;28;20937;-42
2021/08/07 09:26:15;;;;;;;5.22;2.08;;;;;;;21.53;58.95;100071.34;2097404;28;20444;-42
2021/08/07 09:27:16;;;;;;;7.50;1.80;;;;;;;21.39;59.45;100074.53;2097416;28;20036;-42
2021/08/07 09:28:16;;;;;;;6.23;1.87;;;;;;;21.17;59.37;100079.34;2096732;28;20362;-42
2021/08/07 09:29:16;;;;;;;5.70;1.90;;;;;;;21.14;60.25;100075.19;2088588;28;20025;-43
2021/08/07 09:30:16;;;;;;;3.77;1.60;;;;;;;21.11;60.60;100083.44;2080080;28;20036;-43
2021/08/07 09:31:17;;;;;;;7.90;2.23;;;;;;;21.10;59.81;100079.97;2088506;28;20024;-42
2021/08/07 09:32:17;;;;;;;7.40;1.85;;;;;;;21.18;58.72;100067.78;2097393;28;20104;-43
2021/08/07 09:33:21;;;;;;;6.50;2.07;;;;;;;21.39;59.38;100070.06;2097345;28;20039;-43
2021/08/07 09:34:21;;;;;;;9.40;2.05;;;;;;;21.54;58.30;100061.53;2096712;28;20078;-43
2021/08/07 09:35:26;;;;;;;4.50;1.70;;;;;;;21.61;58.49;100071.38;2096815;28;20130;-43
2021/08/07 09:43:39;;;;;;;6.78;2.30;;;;;;;23.78;60.74;100063.81;2097429;28;20439;-56
2021/08/07 09:44:39;;;;;;;6.15;2.22;;;;;;;23.22;61.27;100065.38;2097403;28;20499;-57
2021/08/07 09:45:40;;;;;;;10.23;2.70;;;;;;;22.55;58.55;100056.50;2096581;28;20040;-57
2021/08/07 09:46:40;;;;;;;5.10;2.40;;;;;;;22.19;65.92;100060.22;2096812;28;20017;-58
2021/08/07 09:47:41;;;;;;;6.37;3.27;;;;;;;22.04;65.63;100056.50;2096852;28;20033;-58
2021/08/07 09:48:46;;;;;;;5.50;3.20;;;;;;;21.84;65.65;100060.25;2088363;28;20075;-58
2021/08/07 09:56:11;;;;;;;5.10;2.78;;;;;;;22.81;55.12;100036.09;2122710;27;20387;-61
2021/08/07 09:57:27;;;;;;;2.13;1.60;;;;;;;22.98;54.69;100031.63;2113576;28;20028;-61
2021/08/07 09:58:28;;;;;;;5.68;2.67;;;;;;;22.50;53.19;100030.41;2107300;28;20028;-60
2021/08/07 09:59:33;;;;;;;6.83;2.47;;;;;;;22.06;53.30;100034.09;2113588;28;20448;-59
2021/08/07 10:00:35;;;;;;;3.20;1.80;;;;;;;22.18;55.37;100031.16;2096681;28;20032;-60
2021/08/07 10:01:35;;;;;;;2.95;1.80;;;;;;;22.34;54.53;100031.19;2098616;28;20463;-61
2021/08/07 10:02:37;;;;;;;4.37;2.10;;;;;;;22.09;55.12;100041.75;2105069;28;20031;-60
2021/08/07 10:03:37;;;;;;;5.28;2.10;;;;;;;22.11;55.02;100037.09;2105449;28;20301;-60
2021/08/07 10:04:39;;;;;;;3.97;2.20;;;;;;;22.43;55.42;100034.72;2096646;28;20071;-61
2021/08/07 10:05:39;;;;;;;5.18;2.13;;;;;;;22.84;51.79;100036.63;2088540;28;20068;-62
2021/08/07 10:06:40;;;;;;;5.47;1.50;;;;;;;23.00;52.74;100038.44;2105114;28;20076;-60
2021/08/07 10:07:44;;;;;;;;;;;;;;;22.98;52.71;100036.94;2105528;28;20035;-60
2021/08/07 10:08:49;;;;;;;4.03;1.98;;;;;;;23.18;53.17;100037.44;2105758;28;20006;-61
2021/08/07 10:09:49;;;;;;;2.63;1.33;;;;;;;22.92;51.57;100032.31;2113412;28;20074;-61
2021/08/07 10:10:50;;;;;;;3.60;1.47;;;;;;;22.81;52.13;100036.94;2113493;28;20024;-62
2021/08/07 10:12:03;;;;;;;;;;;;;;;23.23;53.42;100028.97;2113898;28;20451;-62
2021/08/07 10:13:04;;;;;;;2.80;1.50;;;;;;;23.47;52.59;100029.94;2106671;28;20244;-63
2021/08/07 10:14:04;;;;;;;;;;;;;;;23.52;50.17;100032.91;2105420;28;20028;-62
2021/08/07 10:15:05;;;;;;;2.93;1.37;;;;;;;23.65;51.79;100022.53;2113495;28;19908;-61
2021/08/07 10:16:06;;;;;;;3.83;1.80;;;;;;;23.22;52.95;100025.44;2113394;28;20536;-62
2021/08/07 10:17:08;;;;;;;4.97;2.03;;;;;;;23.20;49.56;100013.31;2096631;28;20036;-61
2021/08/07 10:18:08;;;;;;;5.45;2.10;;;;;;;23.20;49.30;100018.66;2096664;28;20088;-62
2021/08/07 10:19:09;;;;;;;7.78;1.90;;;;;;;23.52;51.56;100011.63;2113457;28;20484;-61
2021/08/07 10:20:09;;;;;;;8.23;1.80;;;;;;;23.31;51.47;100028.09;2113379;28;20020;-61
2021/08/07 10:21:10;;;;;;;4.07;1.45;;;;;;;22.61;52.14;100010.66;2104833;28;20062;-61
2021/08/07 10:22:13;;;;;;;5.77;1.77;;;;;;;22.19;54.29;100024.84;2104878;28;20021;-61
2021/08/07 10:23:14;;;;;;;5.22;2.10;;;;;;;22.10;54.64;100030.13;2113340;28;20027;-61
2021/08/07 10:24:14;;;;;;;5.23;1.50;;;;;;;21.98;54.45;100018.97;2096470;28;20539;-61
2021/08/07 10:25:14;;;;;;;5.03;1.87;;;;;;;22.40;53.63;100024.41;2096441;28;20017;-60
2021/08/07 10:26:16;;;;;;;5.10;1.47;;;;;;;22.90;52.01;100019.97;2104828;28;20122;-63
2021/08/07 10:27:18;;;;;;;4.00;1.85;;;;;;;23.11;52.54;100018.66;2096961;28;20013;-61
2021/08/07 10:28:19;;;;;;;3.22;1.65;;;;;;;23.25;51.74;100019.81;2096967;28;20024;-61
2021/08/07 10:29:24;;;;;;;1.93;1.30;;;;;;;23.19;51.26;100017.00;2088673;28;20104;-61
2021/08/07 10:30:24;;;;;;;2.88;1.30;;;;;;;23.57;51.84;100017.25;2097709;28;20024;-62
2021/08/07 10:31:26;;;;;;;4.63;2.10;;;;;;;23.94;52.02;100016.81;2104946;28;20059;-63
2021/08/07 10:32:27;;;;;;;6.10;2.05;;;;;;;23.90;50.45;100014.47;2096666;28;20151;-62
2021/08/07 10:33:27;;;;;;;4.63;1.73;;;;;;;24.14;50.50;100018.06;2096566;28;20090;-61
2021/08/07 10:34:27;;;;;;;1.87;1.27;;;;;;;24.21;49.29;100014.66;2088119;28;20490;-60
2021/08/07 10:35:28;;;;;;;6.17;1.63;;;;;;;24.25;50.15;100021.31;2079915;28;20493;-61
2021/08/07 10:36:28;;;;;;;4.75;1.98;;;;;;;24.03;49.16;100007.75;2096536;28;20037;-62
2021/08/07 10:37:28;;;;;;;5.20;1.70;;;;;;;23.65;50.86;100013.75;2113311;28;20035;-62
2021/08/07 10:38:29;;;;;;;3.93;1.37;;;;;;;23.17;51.94;100008.31;2104780;28;20024;-63
2021/08/07 10:39:30;;;;;;;3.03;1.27;;;;;;;22.51;52.91;100015.28;2104881;28;20366;-62
2021/08/07 10:40:30;;;;;;;3.50;1.58;;;;;;;22.01;53.17;100012.50;2113237;28;20040;-61
2021/08/07 10:41:30;;;;;;;3.17;1.60;;;;;;;21.84;54.10;100020.41;2113267;28;20027;-63
2021/08/07 10:42:32;;;;;;;5.43;1.63;;;;;;;21.68;53.58;100010.53;2113270;28;20020;-61
2021/08/07 10:43:35;;;;;;;5.00;1.83;;;;;;;22.09;54.72;100012.53;2104779;28;20414;-61
2021/08/07 10:44:36;;;;;;;4.05;1.20;;;;;;;22.56;52.61;100007.69;2088663;28;20105;-62
2021/08/07 10:45:39;;;;;;;7.10;1.60;;;;;;;22.82;52.99;100006.69;2097174;28;20040;-63
2021/08/07 10:46:40;;;;;;;3.40;1.42;;;;;;;22.95;50.38;100000.88;2105053;28;20067;-61
2021/08/07 10:47:42;;;;;;;6.93;1.47;;;;;;;22.71;51.09;100004.34;2113197;28;20495;-62
2021/08/07 10:48:43;;;;;;;5.35;1.70;;;;;;;22.26;52.26;100001.94;2104914;28;20099;-60
2021/08/07 10:49:45;;;;;;;5.57;1.50;;;;;;;21.94;53.35;100000.88;2096472;28;20100;-61
2021/08/07 10:50:45;;;;;;;3.33;1.50;;;;;;;21.69;53.79;100006.06;2096790;28;20100;-63
2021/08/07 10:51:46;;;;;;;3.80;1.63;;;;;;;21.36;54.94;99996.91;2104756;28;20476;-62
2021/08/07 10:52:46;;;;;;;3.83;1.67;;;;;;;21.25;55.47;99994.53;2088051;28;20129;-63
2021/08/07 10:53:46;;;;;;;4.40;1.70;;;;;;;21.17;57.56;99991.81;2079891;28;20053;-62
2021/08/07 10:54:47;;;;;;;4.93;2.10;;;;;;;21.08;57.07;99989.09;2104615;28;20056;-61
2021/08/07 10:56:00;;;;;;;3.78;1.75;;;;;;;21.09;56.74;99996.09;2112794;28;20052;-63
2021/08/07 10:57:00;;;;;;;2.13;1.60;;;;;;;20.90;55.99;99994.44;2106365;28;20032;-61
2021/08/07 10:58:01;;;;;;;2.83;1.27;;;;;;;20.91;55.59;99992.63;2113009;28;20028;-62
2021/08/07 10:59:10;;;;;;;3.45;1.60;;;;;;;20.93;56.13;99988.00;2104609;28;20032;-62
2021/08/07 11:00:16;;;;;;;3.55;1.65;;;;;;;21.03;54.77;99979.94;2107081;28;20413;-61
2021/08/07 11:01:23;;;;;;;4.38;1.80;;;;;;;21.16;55.31;99980.38;2122106;28;20023;-62
2021/08/07 11:02:24;;;;;;;3.40;1.35;;;;;;;21.19;55.24;99980.06;2122146;28;20019;-63
2021/08/07 11:03:24;;;;;;;4.50;2.08;;;;;;;21.20;55.29;99978.22;2096085;28;20104;-62
2021/08/07 11:04:27;;;;;;;6.33;1.73;;;;;;;21.38;56.00;99972.88;2079635;28;20394;-62
2021/08/07 11:05:47;;;;;;;6.15;1.88;;;;;;;21.84;53.67;99969.13;2113357;27;20484;-64
2021/08/07 11:06:50;;;;;;;4.10;1.65;;;;;;;22.04;52.89;99968.84;2117805;28;20382;-61
2021/08/07 11:08:13;;;;;;;4.97;1.30;;;;;;;22.19;52.43;99969.03;2098902;28;20039;-61
2021/08/07 11:09:22;;;;;;;5.53;1.80;;;;;;;22.51;52.81;99962.09;2107340;28;20023;-61
2021/08/07 11:10:30;;;;;;;4.18;1.30;;;;;;;22.55;52.12;99968.78;2110892;28;20023;-62
2021/08/07 11:11:30;;;;;;;3.67;1.70;;;;;;;22.67;51.06;99960.47;2098997;28;20020;-61
2021/08/07 11:12:31;;;;;;;7.23;2.03;;;;;;;22.83;51.52;99957.84;2099594;28;20381;-60
2021/08/07 11:13:31;;;;;;;2.30;1.63;;;;;;;23.13;50.30;99965.28;2107386;28;20047;-61
2021/08/07 11:14:34;;;;;;;3.17;2.10;;;;;;;23.35;50.23;99957.59;2099010;28;20082;-62
2021/08/07 11:15:34;;;;;;;5.20;1.98;;;;;;;23.39;48.06;99956.25;2099398;28;20033;-61
2021/08/07 11:16:34;;;;;;;4.77;1.80;;;;;;;23.30;48.33;99950.06;2116338;28;20015;-62
2021/08/07 11:17:39;;;;;;;3.07;1.23;;;;;;;23.37;50.59;99951.09;2107318;28;20081;-61
2021/08/07 11:18:39;;;;;;;5.40;1.80;;;;;;;23.61;48.66;99957.31;2099545;28;20024;-63
2021/08/07 11:20:07;;;;;;;2.30;1.30;;;;;;;23.58;46.71;99954.19;2090651;28;20453;-62
2021/08/07 11:21:07;;;;;;;2.90;1.00;;;;;;;23.39;46.37;99946.44;2097956;28;20030;-62
2021/08/07 11:22:08;;;;;;;4.57;1.40;;;;;;;23.20;47.77;99952.13;2090447;28;20393;-62
2021/08/07 11:23:09;;;;;;;3.53;1.50;;;;;;;23.04;48.50;99953.81;2090562;28;20021;-61
2021/08/07 11:24:46;;;;;;;5.82;1.70;;;;;;;22.90;49.11;99945.50;2098903;28;20028;-62
2021/08/07 11:25:47;;;;;;;4.03;1.35;;;;;;;23.23;48.94;99944.59;2103751;28;20062;-62
2021/08/07 11:26:48;;;;;;;4.18;1.58;;;;;;;23.40;49.01;99940.09;2110365;28;20030;-62
2021/08/07 11:27:52;;;;;;;3.22;1.50;;;;;;;23.61;48.69;99941.34;2098835;28;20036;-61
2021/08/07 11:29:06;;;;;;;6.63;1.80;;;;;;;23.58;48.96;99947.03;2099526;28;20050;-61
2021/08/07 11:30:25;;;;;;;3.13;1.38;;;;;;;23.10;47.30;99941.66;2098735;28;20413;-62
2021/08/07 11:31:26;;;;;;;9.52;1.63;;;;;;;22.66;50.75;99943.72;2101480;28;20088;-61
2021/08/07 11:32:26;;;;;;;7.13;1.47;;;;;;;22.37;50.43;99940.50;2090980;28;20540;-61
2021/08/07 11:33:27;;;;;;;3.90;1.53;;;;;;;22.17;53.36;99947.13;2082373;28;20060;-61
2021/08/07 11:34:27;;;;;;;4.60;1.63;;;;;;;22.04;49.43;99945.78;2098873;28;20099;-61
2021/08/07 11:35:34;;;;;;;3.37;1.60;;;;;;;21.92;49.90;99936.44;2115573;28;20587;-61
2021/08/07 11:36:35;;;;;;;3.22;1.63;;;;;;;21.78;50.31;99936.09;2116218;28;20031;-62
2021/08/07 11:37:35;;;;;;;6.00;1.83;;;;;;;21.66;51.58;99937.34;2098641;28;20063;-61
2021/08/07 11:38:58;;;;;;;3.17;1.77;;;;;;;21.43;52.15;99948.50;2098809;28;20043;-62
2021/08/07 11:40:08;;;;;;;3.40;1.60;;;;;;;21.53;53.00;99943.94;2101879;28;20035;-62
2021/08/07 11:41:10;;;;;;;4.30;1.38;;;;;;;21.70;51.81;99944.84;2108638;28;20027;-62
2021/08/07 11:42:30;;;;;;;;;;;;;;;22.29;52.43;99948.47;2090824;28;20020;-62
2021/08/07 11:43:38;;;;;;;4.30;1.40;;;;;;;22.72;50.16;99936.91;2098874;28;20392;-61
2021/08/07 11:44:41;;;;;;;2.80;1.20;;;;;;;22.37;50.73;99935.19;2090316;28;20035;-63
2021/08/07 11:45:41;;;;;;;3.08;1.45;;;;;;;22.16;51.30;99937.47;2091453;28;20075;-61
2021/08/07 11:46:41;;;;;;;3.67;1.67;;;;;;;21.95;51.50;99941.44;2116051;28;20084;-61
2021/08/07 11:47:43;;;;;;;3.93;1.87;;;;;;;21.73;51.76;99939.22;2098674;28;20028;-62
2021/08/07 11:48:48;;;;;;;4.25;1.65;;;;;;;21.65;51.64;99936.50;2098772;28;20509;-62
2021/08/07 11:49:48;;;;;;;3.30;1.50;;;;;;;21.58;51.58;99938.97;2099412;28;20108;-61
2021/08/07 11:50:48;;;;;;;4.93;1.50;;;;;;;21.57;52.43;99939.97;2098887;28;20039;-60
2021/08/07 11:51:52;;;;;;;3.08;1.33;;;;;;;21.51;53.07;99932.63;2107071;28;20028;-61
2021/08/07 11:52:52;;;;;;;6.47;1.73;;;;;;;21.49;52.26;99934.63;2099106;28;20025;-61
2021/08/07 11:53:52;;;;;;;4.43;1.50;;;;;;;21.43;53.28;99937.91;2098578;28;20512;-61
2021/08/07 11:54:52;;;;;;;5.23;1.87;;;;;;;21.56;53.10;99932.97;2098732;28;20426;-63
2021/08/07 11:56:00;;;;;;;6.00;1.80;;;;;;;21.56;54.06;99934.81;2081745;28;20425;-60
2021/08/07 11:57:00;;;;;;;2.50;1.20;;;;;;;21.53;52.65;99928.00;2093006;28;20028;-64
2021/08/07 11:58:07;;;;;;;4.63;1.60;;;;;;;21.39;53.52;99928.59;2098656;28;20028;-63
2021/08/07 11:59:07;;;;;;;8.60;1.58;;;;;;;21.32;53.60;99926.56;2090983;28;20108;-62
2021/08/07 12:00:17;;;;;;;4.50;1.70;;;;;;;21.28;53.74;99927.88;2090334;28;20065;-64
2021/08/07 12:01:18;;;;;;;3.38;1.55;;;;;;;21.20;54.08;99925.19;2099951;28;20016;-61
2021/08/07 12:02:18;;;;;;;4.03;1.45;;;;;;;21.20;53.90;99933.97;2106887;28;20145;-62
2021/08/07 12:03:18;;;;;;;3.10;1.73;;;;;;;21.22;54.46;99932.00;2098585;28;20024;-61
2021/08/07 12:04:19;;;;;;;6.30;2.07;;;;;;;21.24;54.61;99937.13;2107010;28;20488;-62
2021/08/07 12:05:19;;;;;;;4.97;1.67;;;;;;;21.18;55.33;99929.81;2115282;28;20012;-61
2021/08/07 12:06:21;;;;;;;7.03;1.80;;;;;;;21.09;54.57;99926.28;2115914;28;20415;-62
2021/08/07 12:07:21;;;;;;;6.13;1.95;;;;;;;20.98;55.46;99924.75;2098530;28;20021;-61
2021/08/07 12:08:22;;;;;;;3.23;1.47;;;;;;;20.80;55.21;99922.91;2098586;28;20021;-62
2021/08/07 12:09:22;;;;;;;;;;;;;;;20.73;55.25;99924.50;2098938;28;20433;-62
2021/08/07 12:10:22;;;;;;;1.30;1.03;;;;;;;20.68;55.18;99918.84;2098531;28;19958;-64
2021/08/07 12:11:23;;;;;;;7.23;1.97;;;;;;;20.64;55.91;99925.44;2115203;28;20473;-62
2021/08/07 12:12:23;;;;;;;2.92;1.33;;;;;;;20.62;56.03;99933.56;2098426;28;20052;-62
2021/08/07 12:13:37;;;;;;;6.50;1.70;;;;;;;20.55;56.83;99943.94;2082081;28;20109;-61
2021/08/07 12:14:37;;;;;;;4.70;1.30;;;;;;;20.35;58.93;99942.44;2102067;28;20021;-60
2021/08/07 12:15:37;;;;;;;3.83;1.23;;;;;;;20.18;60.60;99939.59;2106748;28;20566;-62
2021/08/07 12:16:41;;;;;;;3.60;1.87;;;;;;;20.18;59.43;99939.59;2090146;28;20028;-61
2021/08/07 12:17:48;;;;;;;3.92;1.77;;;;;;;20.23;59.30;99929.41;2099282;28;20481;-60
2021/08/07 12:18:56;;;;;;;3.92;1.63;;;;;;;20.43;58.07;99929.25;2106167;28;20023;-63
2021/08/07 12:20:00;;;;;;;3.38;1.27;;;;;;;20.67;58.79;99927.81;2106595;28;20082;-60
2021/08/07 12:21:00;;;;;;;7.50;2.00;;;;;;;20.94;60.03;99921.53;2099096;28;20051;-62
2021/08/07 12:22:04;;;;;;;4.83;1.50;;;;;;;21.31;57.90;99924.91;2098476;28;20032;-62
2021/08/07 12:23:05;;;;;;;6.63;1.92;;;;;;;21.91;60.19;99925.00;2090994;28;20079;-62
2021/08/07 12:24:11;;;;;;;3.67;1.77;;;;;;;22.13;58.14;99914.72;2098388;28;20526;-61
2021/08/07 12:25:11;;;;;;;4.38;1.58;;;;;;;22.18;56.64;99914.25;2099083;28;20021;-62
2021/08/07 12:26:13;;;;;;;7.73;1.57;;;;;;;22.22;57.78;99913.78;2090351;28;20063;-62
2021/08/07 12:27:13;;;;;;;3.92;1.50;;;;;;;22.06;54.71;99909.25;2098506;28;20020;-61
2021/08/07 12:28:15;;;;;;;4.00;1.70;;;;;;;21.90;55.39;99909.22;2106839;28;20103;-60
2021/08/07 12:29:26;;;;;;;3.28;1.70;;;;;;;21.74;55.81;99916.16;2090281;28;20494;-62
2021/08/07 12:30:26;;;;;;;3.35;1.25;;;;;;;21.71;54.04;99916.44;2101435;28;20024;-61
2021/08/07 12:31:37;;;;;;;5.73;1.57;;;;;;;21.53;54.81;99901.47;2106754;28;20098;-62
2021/08/07 12:32:37;;;;;;;6.60;1.80;;;;;;;21.40;54.80;99907.22;2091510;28;20052;-62
2021/08/07 12:33:41;;;;;;;1.90;1.27;;;;;;;21.27;53.78;99901.50;2106751;28;20028;-62
2021/08/07 12:34:43;;;;;;;1.50;1.10;;;;;;;21.23;53.96;99908.94;2115110;28;20089;-61
2021/08/07 12:35:43;;;;;;;;;;;;;;;21.22;54.05;99904.66;2115947;28;20027;-63
2021/08/07 12:37:19;;;;;;;5.63;1.93;;;;;;;21.37;53.62;99899.56;2106566;28;19914;-61
2021/08/07 12:38:29;;;;;;;5.45;1.10;;;;;;;21.47;53.65;99902.09;2103279;28;20028;-63
2021/08/07 12:39:42;;;;;;;2.85;1.10;;;;;;;21.57;53.60;99901.97;2094657;28;20025;-63
2021/08/07 12:40:43;;;;;;;4.72;1.40;;;;;;;21.69;52.42;99899.84;2084417;28;20461;-63
2021/08/07 12:41:43;;;;;;;3.85;1.95;;;;;;;21.74;52.69;99900.22;2082670;28;20487;-63
2021/08/07 12:42:43;;;;;;;4.83;1.73;;;;;;;21.78;51.46;99904.22;2081756;28;20056;-64
2021/08/07 12:43:43;;;;;;;4.77;1.53;;;;;;;21.90;51.56;99907.41;2081636;28;20117;-63
2021/08/07 12:44:54;;;;;;;3.40;1.60;;;;;;;21.93;52.04;99906.25;2089899;28;20025;-61
2021/08/07 12:45:56;;;;;;;4.28;1.90;;;;;;;22.11;52.65;99898.97;2099588;28;20020;-61